createdAt,value
2023-04-15T00:02:03.609Z,100.00
2023-04-15T00:04:37.618Z,100.00
2023-04-15T00:07:18.421Z,100.00
2023-04-15T00:09:56.307Z,100.00
2023-04-15T00:12:33.229Z,100.00
2023-04-15T00:15:15.624Z,100.00
2023-04-15T00:17:56.955Z,100.00
2023-04-15T00:20:35.462Z,100.00
2023-04-15T00:23:13.944Z,100.00
2023-04-15T00:25:54.695Z,100.00
2023-04-15T00:28:32.936Z,100.00
2023-04-15T00:31:11.282Z,100.00
2023-04-15T00:33:45.142Z,100.00
2023-04-15T00:36:20.603Z,100.00
2023-04-15T00:39:04.048Z,100.00
2023-04-15T00:41:44.772Z,100.00
2023-04-15T00:44:21.919Z,100.00
2023-04-15T00:46:57.896Z,100.00
2023-04-15T00:49:40.074Z,100.00
2023-04-15T00:52:18.953Z,100.00
2023-04-15T00:54:54.246Z,100.00
2023-04-15T00:57:31.991Z,100.00
2023-04-15T01:00:08.149Z,100.00
2023-04-15T01:02:48.806Z,100.00
2023-04-15T01:05:19.739Z,100.00
2023-04-15T01:08:00.688Z,100.00
2023-04-15T01:10:42.376Z,100.00
2023-04-15T01:13:22.553Z,100.00
2023-04-15T01:15:57.026Z,100.00
2023-04-15T01:18:35.980Z,100.00
2023-04-15T01:21:14.765Z,100.00
2023-04-15T01:23:53.569Z,100.00
2023-04-15T01:26:29.046Z,100.00
2023-04-15T01:29:03.791Z,100.00
2023-04-15T01:31:50.316Z,100.00
2023-04-15T01:34:26.203Z,100.00
2023-04-15T01:37:09.892Z,100.00
2023-04-15T01:39:45.337Z,100.00
2023-04-15T01:42:23.050Z,100.00
2023-04-15T01:45:00.720Z,100.00
2023-04-15T01:47:43.050Z,100.00
2023-04-15T01:50:24.054Z,100.00
2023-04-15T01:53:07.936Z,100.00
2023-04-15T01:55:46.281Z,100.00
2023-04-15T01:58:27.121Z,100.00
2023-04-15T02:01:00.412Z,100.00
2023-04-15T02:03:35.148Z,100.00
2023-04-15T02:06:10.550Z,100.00
2023-04-15T02:08:49.020Z,100.00
2023-04-15T02:11:26.350Z,100.00
2023-04-15T02:14:01.673Z,100.00
2023-04-15T02:16:42.434Z,100.00
2023-04-15T02:19:20.910Z,100.00
2023-04-15T02:22:01.682Z,100.00
2023-04-15T02:24:31.371Z,100.00
2023-04-15T02:27:14.635Z,100.00
2023-04-15T02:29:55.121Z,100.00
2023-04-15T02:32:38.465Z,100.00
2023-04-15T02:35:16.778Z,100.00
2023-04-15T02:37:57.657Z,100.00
2023-04-15T02:40:38.965Z,100.00
2023-04-15T02:43:18.328Z,100.00
2023-04-15T02:45:56.146Z,100.00
2023-04-15T02:48:33.953Z,100.00
2023-04-15T02:51:20.459Z,100.00
2023-04-15T02:54:06.298Z,100.00
2023-04-15T02:56:48.024Z,100.00
2023-04-15T02:59:20.154Z,100.00
2023-04-15T03:01:55.325Z,100.00
2023-04-15T03:04:30.251Z,100.00
2023-04-15T03:07:06.477Z,100.00
2023-04-15T03:09:47.987Z,100.00
2023-04-15T03:12:26.267Z,100.00
2023-04-15T03:15:07.004Z,100.00
2023-04-15T03:17:55.649Z,100.00
2023-04-15T03:20:36.358Z,100.00
2023-04-15T03:23:14.618Z,100.00
2023-04-15T03:25:58.997Z,100.00
2023-04-15T03:28:39.474Z,100.00
2023-04-15T03:31:20.075Z,100.00
2023-04-15T03:33:57.935Z,100.00
2023-04-15T03:36:43.227Z,100.00
2023-04-15T03:39:18.470Z,100.00
2023-04-15T03:41:56.474Z,100.00
2023-04-15T03:44:37.944Z,100.00
2023-04-15T03:47:19.376Z,100.00
2023-04-15T03:49:48.916Z,100.00
2023-04-15T03:52:27.291Z,100.00
2023-04-15T03:55:05.060Z,100.00
2023-04-15T03:57:46.679Z,100.00
2023-04-15T04:00:22.944Z,100.00
2023-04-15T04:03:01.340Z,100.00
2023-04-15T04:05:45.470Z,100.00
2023-04-15T04:08:24.783Z,100.00
2023-04-15T04:11:06.088Z,100.00
2023-04-15T04:13:44.664Z,100.00
2023-04-15T04:16:22.463Z,100.00
2023-04-15T04:19:06.415Z,100.00
2023-04-15T04:21:44.271Z,100.00
2023-04-15T04:24:31.654Z,100.00
2023-04-15T04:27:16.200Z,100.00
2023-04-15T04:30:00.316Z,100.00
2023-04-15T04:32:35.896Z,100.00
2023-04-15T04:35:13.977Z,100.00
2023-04-15T04:37:54.537Z,100.00
2023-04-15T04:40:35.312Z,100.00
2023-04-15T04:43:16.008Z,100.00
2023-04-15T04:45:59.959Z,100.00
2023-04-15T04:48:37.955Z,100.00
2023-04-15T04:51:18.637Z,100.00
2023-04-15T04:53:57.376Z,100.00
2023-04-15T04:56:40.005Z,100.00
2023-04-15T04:59:20.132Z,100.00
2023-04-15T05:02:03.528Z,100.00
2023-04-15T05:04:41.828Z,100.00
2023-04-15T05:07:27.076Z,100.00
2023-04-15T05:10:15.912Z,100.00
2023-04-15T05:12:58.636Z,100.00
2023-04-15T05:15:35.266Z,100.00
2023-04-15T05:18:13.576Z,100.00
2023-04-15T05:20:51.945Z,100.00
2023-04-15T05:23:24.206Z,100.00
2023-04-15T05:26:10.218Z,100.00
2023-04-15T05:28:42.992Z,100.00
2023-04-15T05:31:23.277Z,100.00
2023-04-15T05:34:11.777Z,100.00
2023-04-15T05:36:50.894Z,100.00
2023-04-15T05:39:32.741Z,100.00
2023-04-15T05:42:14.426Z,100.00
2023-04-15T05:44:58.160Z,100.00
2023-04-15T05:47:31.137Z,100.00
2023-04-15T05:50:14.685Z,100.00
2023-04-15T05:52:56.921Z,100.00
2023-04-15T05:55:38.412Z,100.00
2023-04-15T05:58:19.675Z,100.00
2023-04-15T06:00:57.422Z,100.00
2023-04-15T06:03:43.132Z,100.00
2023-04-15T06:06:21.112Z,100.00
2023-04-15T06:09:00.790Z,100.00
2023-04-15T06:11:44.212Z,100.00
2023-04-15T06:14:17.070Z,100.00
2023-04-15T06:16:58.893Z,100.00
2023-04-15T06:19:36.674Z,100.00
2023-04-15T06:22:09.578Z,100.00
2023-04-15T06:24:44.826Z,100.00
2023-04-15T06:27:23.204Z,100.00
2023-04-15T06:30:00.913Z,100.00
2023-04-15T06:32:37.003Z,100.00
2023-04-15T06:35:17.688Z,100.00
2023-04-15T06:37:55.573Z,100.00
2023-04-15T06:40:31.730Z,100.00
2023-04-15T06:43:10.431Z,100.00
2023-04-15T06:45:45.580Z,100.00
2023-04-15T06:48:28.357Z,100.00
2023-04-15T06:50:59.050Z,100.00
2023-04-15T06:53:30.901Z,100.00
2023-04-15T06:56:08.806Z,100.00
2023-04-15T06:58:48.948Z,100.00
2023-04-15T07:01:28.936Z,100.00
2023-04-15T07:04:09.516Z,100.00
2023-04-15T07:06:53.372Z,100.00
2023-04-15T07:09:31.260Z,100.00
2023-04-15T07:12:10.564Z,100.00
2023-04-15T07:14:44.850Z,100.00
2023-04-15T07:17:20.271Z,100.00
2023-04-15T07:20:00.207Z,100.00
2023-04-15T07:22:43.524Z,100.00
2023-04-15T07:25:16.148Z,100.00
2023-04-15T07:27:54.594Z,100.00
2023-04-15T07:30:29.275Z,100.00
2023-04-15T07:33:05.257Z,100.00
2023-04-15T07:35:48.977Z,100.00
2023-04-15T07:38:32.291Z,100.00
2023-04-15T07:41:16.188Z,100.00
2023-04-15T07:43:56.801Z,100.00
2023-04-15T07:46:32.333Z,100.00
2023-04-15T07:49:13.627Z,100.00
2023-04-15T07:51:54.129Z,100.00
2023-04-15T07:54:46.699Z,100.00
2023-04-15T07:57:24.813Z,100.00
2023-04-15T08:00:07.859Z,100.00
2023-04-15T08:02:51.555Z,100.00
2023-04-15T08:05:29.761Z,100.00
2023-04-15T08:08:07.262Z,100.00
2023-04-15T08:10:52.502Z,100.00
2023-04-15T08:13:36.902Z,100.00
2023-04-15T08:16:31.202Z,100.00
2023-04-15T08:19:07.927Z,100.00
2023-04-15T08:21:48.653Z,100.00
2023-04-15T08:24:41.264Z,100.00
2023-04-15T08:27:19.227Z,100.00
2023-04-15T08:30:15.472Z,100.00
2023-04-15T08:32:53.335Z,100.00
2023-04-15T08:35:41.868Z,100.00
2023-04-15T08:38:28.624Z,100.00
2023-04-15T08:41:10.739Z,100.00
2023-04-15T08:43:53.045Z,100.00
2023-04-15T08:46:35.021Z,100.00
2023-04-15T08:49:22.909Z,100.00
2023-04-15T08:52:07.377Z,100.00
2023-04-15T08:54:46.957Z,100.00
2023-04-15T08:57:31.584Z,100.00
2023-04-15T09:00:19.841Z,97.19
2023-04-15T09:03:06.066Z,90.61
2023-04-15T09:05:53.355Z,92.90
2023-04-15T09:08:40.607Z,94.60
2023-04-15T09:11:20.309Z,95.78
2023-04-15T09:14:04.837Z,96.21
2023-04-15T09:17:01.482Z,92.38
2023-04-15T09:19:43.895Z,97.22
2023-04-15T09:22:28.117Z,92.92
2023-04-15T09:25:34.793Z,93.87
2023-04-15T09:28:32.251Z,93.12
2023-04-15T09:31:15.675Z,96.26
2023-04-15T09:34:04.909Z,90.89
2023-04-15T09:36:58.503Z,88.59
2023-04-15T09:39:52.129Z,91.55
2023-04-15T09:42:57.718Z,86.93
2023-04-15T09:45:40.263Z,91.36
2023-04-15T09:48:26.536Z,89.27
2023-04-15T09:51:12.492Z,92.32
2023-04-15T09:54:00.566Z,86.81
2023-04-15T09:56:44.162Z,91.46
2023-04-15T09:59:26.943Z,90.11
2023-04-15T10:02:10.659Z,88.59
2023-04-15T10:05:03.099Z,81.18
2023-04-15T10:07:42.961Z,80.98
2023-04-15T10:10:24.295Z,83.92
2023-04-15T10:13:12.682Z,85.51
2023-04-15T10:16:03.551Z,84.11
2023-04-15T10:19:04.777Z,78.67
2023-04-15T10:21:51.533Z,83.84
2023-04-15T10:24:34.362Z,82.99
2023-04-15T10:27:12.506Z,84.54
2023-04-15T10:30:03.077Z,79.92
2023-04-15T10:32:44.911Z,85.05
2023-04-15T10:35:27.230Z,84.53
2023-04-15T10:38:28.869Z,85.54
2023-04-15T10:41:28.216Z,87.96
2023-04-15T10:44:14.709Z,81.10
2023-04-15T10:46:58.336Z,76.98
2023-04-15T10:49:57.286Z,79.50
2023-04-15T10:52:42.700Z,77.44
2023-04-15T10:55:31.568Z,75.60
2023-04-15T10:58:12.160Z,72.19
2023-04-15T11:00:59.009Z,73.88
2023-04-15T11:03:48.127Z,73.00
2023-04-15T11:06:51.379Z,75.36
2023-04-15T11:09:39.727Z,75.74
2023-04-15T11:12:29.219Z,77.11
2023-04-15T11:15:48.445Z,80.34
2023-04-15T11:18:35.197Z,81.39
2023-04-15T11:21:18.014Z,84.29
2023-04-15T11:24:03.990Z,86.82
2023-04-15T11:26:38.234Z,86.43
2023-04-15T11:29:23.286Z,89.04
2023-04-15T11:32:12.167Z,89.43
2023-04-15T11:34:51.678Z,83.17
2023-04-15T11:37:38.095Z,78.82
2023-04-15T11:40:23.077Z,75.18
2023-04-15T11:43:15.957Z,79.54
2023-04-15T11:46:37.703Z,76.67
2023-04-15T11:49:47.636Z,79.90
2023-04-15T11:52:35.086Z,82.51
2023-04-15T11:55:18.820Z,81.03
2023-04-15T11:58:16.735Z,82.45
2023-04-15T12:00:59.321Z,83.75
2023-04-15T12:03:51.229Z,82.42
2023-04-15T12:06:42.604Z,79.38
2023-04-15T12:09:26.644Z,78.22
2023-04-15T12:12:07.220Z,75.26
2023-04-15T12:15:07.759Z,76.68
2023-04-15T12:17:51.883Z,76.96
2023-04-15T12:21:09.263Z,78.53
2023-04-15T12:24:06.601Z,79.30
2023-04-15T12:27:04.962Z,75.26
2023-04-15T12:29:44.777Z,79.17
2023-04-15T12:32:32.021Z,74.51
2023-04-15T12:35:23.903Z,76.95
2023-04-15T12:38:10.261Z,73.35
2023-04-15T12:41:04.206Z,73.19
2023-04-15T12:43:49.186Z,76.88
2023-04-15T12:46:47.557Z,75.01
2023-04-15T12:49:44.157Z,72.95
2023-04-15T12:52:32.058Z,74.62
2023-04-15T12:55:16.206Z,75.10
2023-04-15T12:58:05.208Z,75.00
2023-04-15T13:00:50.082Z,74.46
2023-04-15T13:03:36.200Z,75.82
2023-04-15T13:06:46.521Z,78.09
2023-04-15T13:09:21.741Z,80.85
2023-04-15T13:12:14.656Z,81.44
2023-04-15T13:15:05.609Z,79.81
2023-04-15T13:17:55.901Z,81.38
2023-04-15T13:20:46.587Z,79.85
2023-04-15T13:23:38.930Z,81.92
2023-04-15T13:26:22.877Z,84.08
2023-04-15T13:29:18.969Z,84.55
2023-04-15T13:32:02.696Z,81.59
2023-04-15T13:34:49.585Z,86.68
2023-04-15T13:37:37.417Z,83.75
2023-04-15T13:40:21.295Z,82.12
2023-04-15T13:43:13.409Z,82.97
2023-04-15T13:45:59.648Z,79.28
2023-04-15T13:48:55.720Z,79.14
2023-04-15T13:51:36.423Z,80.79
2023-04-15T13:54:15.236Z,80.56
2023-04-15T13:56:58.884Z,77.59
2023-04-15T13:59:45.200Z,79.08
2023-04-15T14:02:34.954Z,81.05
2023-04-15T14:05:23.827Z,78.86
2023-04-15T14:08:10.873Z,78.30
2023-04-15T14:11:00.896Z,77.74
2023-04-15T14:13:41.612Z,74.07
2023-04-15T14:16:28.449Z,75.42
2023-04-15T14:19:14.796Z,76.85
2023-04-15T14:21:55.948Z,80.39
2023-04-15T14:24:55.726Z,78.78
2023-04-15T14:27:42.790Z,81.06
2023-04-15T14:30:38.606Z,81.97
2023-04-15T14:33:30.666Z,82.12
2023-04-15T14:36:26.121Z,83.71
2023-04-15T14:39:09.645Z,82.07
2023-04-15T14:41:58.576Z,81.83
2023-04-15T14:48:00.439Z,85.50
2023-04-15T14:51:07.967Z,84.91
2023-04-15T14:54:24.041Z,87.33
2023-04-15T14:57:12.655Z,86.92
2023-04-15T14:59:57.257Z,89.06
2023-04-15T15:02:58.630Z,89.06
2023-04-15T15:05:47.028Z,88.98
2023-04-15T15:08:42.431Z,88.81
2023-04-15T15:11:24.214Z,90.31
2023-04-15T15:14:13.427Z,91.42
2023-04-15T15:17:01.675Z,93.01
2023-04-15T15:19:50.924Z,91.19
2023-04-15T15:22:34.294Z,93.18
2023-04-15T15:25:30.031Z,92.92
2023-04-15T15:28:18.268Z,92.38
2023-04-15T15:31:05.593Z,92.29
2023-04-15T15:33:57.941Z,92.58
2023-04-15T15:36:57.270Z,93.43
2023-04-15T15:39:41.106Z,92.94
2023-04-15T15:42:25.885Z,93.80
2023-04-15T15:45:19.504Z,94.85
2023-04-15T15:51:04.946Z,94.04
2023-04-15T15:54:01.351Z,92.84
2023-04-15T15:56:42.319Z,92.77
2023-04-15T15:59:26.739Z,92.18
2023-04-15T16:02:15.521Z,93.60
2023-04-15T16:05:00.984Z,91.79
2023-04-15T16:07:46.633Z,91.31
2023-04-15T16:10:50.266Z,92.63
2023-04-15T16:13:37.800Z,93.01
2023-04-15T16:16:31.915Z,93.77
2023-04-15T16:19:18.747Z,93.42
2023-04-15T16:21:59.453Z,93.41
2023-04-15T16:24:50.267Z,92.97
2023-04-15T16:27:54.236Z,94.26
2023-04-15T16:30:50.272Z,94.10
2023-04-15T16:33:34.579Z,91.46
2023-04-15T16:36:32.274Z,94.30
2023-04-15T16:39:15.516Z,94.21
2023-04-15T16:42:00.514Z,93.16
2023-04-15T16:44:51.885Z,93.15
2023-04-15T16:47:36.225Z,93.87
2023-04-15T16:50:20.088Z,94.32
2023-04-15T16:53:03.770Z,95.14
2023-04-15T16:55:51.143Z,97.61
2023-04-15T16:58:35.369Z,97.83
2023-04-15T17:01:17.029Z,98.57
2023-04-15T17:03:50.017Z,100.00
2023-04-15T17:06:31.314Z,100.00
2023-04-15T17:09:18.677Z,100.00
2023-04-15T17:11:56.591Z,100.00
2023-04-15T17:14:42.026Z,100.00
2023-04-15T17:17:20.893Z,100.00
2023-04-15T17:20:08.375Z,100.00
2023-04-15T17:22:46.613Z,100.00
2023-04-15T17:25:38.886Z,100.00
2023-04-15T17:28:22.935Z,100.00
2023-04-15T17:31:12.358Z,100.00
2023-04-15T17:34:10.638Z,100.00
2023-04-15T17:36:54.597Z,100.00
2023-04-15T17:39:37.134Z,100.00
2023-04-15T17:42:23.147Z,100.00
2023-04-15T17:45:17.504Z,100.00
2023-04-15T17:48:06.131Z,100.00
2023-04-15T17:50:48.895Z,100.00
2023-04-15T17:53:47.785Z,100.00
2023-04-15T17:56:34.715Z,100.00
2023-04-15T17:59:19.837Z,100.00
2023-04-15T18:02:16.590Z,100.00
2023-04-15T18:05:00.929Z,100.00
2023-04-15T18:07:44.802Z,100.00
2023-04-15T18:10:43.880Z,100.00
2023-04-15T18:13:29.566Z,100.00
2023-04-15T18:16:05.924Z,100.00
2023-04-15T18:18:52.497Z,100.00
2023-04-15T18:21:36.380Z,100.00
2023-04-15T18:24:52.551Z,100.00
2023-04-15T18:27:59.200Z,100.00
2023-04-15T18:31:21.997Z,100.00
2023-04-15T18:34:04.092Z,100.00
2023-04-15T18:37:04.137Z,100.00
2023-04-15T18:39:50.553Z,100.00
2023-04-15T18:42:30.980Z,100.00
2023-04-15T18:45:05.737Z,100.00
2023-04-15T18:47:59.967Z,100.00
2023-04-15T18:50:49.258Z,100.00
2023-04-15T18:53:38.762Z,100.00
2023-04-15T18:56:18.563Z,100.00
2023-04-15T18:59:09.926Z,100.00
2023-04-15T19:02:07.547Z,100.00
2023-04-15T19:04:53.131Z,100.00
2023-04-15T19:07:36.883Z,100.00
2023-04-15T19:10:23.654Z,100.00
2023-04-15T19:13:05.422Z,100.00
2023-04-15T19:15:57.850Z,100.00
2023-04-15T19:18:34.721Z,100.00
2023-04-15T19:21:19.895Z,100.00
2023-04-15T19:24:06.868Z,100.00
2023-04-15T19:26:50.234Z,100.00
2023-04-15T19:29:41.925Z,100.00
2023-04-15T19:32:26.930Z,100.00
2023-04-15T19:35:24.702Z,100.00
2023-04-15T19:38:01.743Z,100.00
2023-04-15T19:40:43.892Z,100.00
2023-04-15T19:43:20.123Z,100.00
2023-04-15T19:46:07.293Z,100.00
2023-04-15T19:48:54.275Z,100.00
2023-04-15T19:51:42.139Z,100.00
2023-04-15T19:54:22.973Z,100.00
2023-04-15T19:57:02.403Z,100.00
2023-04-15T19:59:54.437Z,100.00
2023-04-15T20:02:36.346Z,100.00
2023-04-15T20:05:20.491Z,100.00
2023-04-15T20:08:06.039Z,100.00
2023-04-15T20:10:45.007Z,100.00
2023-04-15T20:13:27.980Z,100.00
2023-04-15T20:16:15.583Z,100.00
2023-04-15T20:18:56.489Z,100.00
2023-04-15T20:21:42.718Z,100.00
2023-04-15T20:24:24.436Z,100.00
2023-04-15T20:27:06.692Z,100.00
2023-04-15T20:29:51.645Z,100.00
2023-04-15T20:32:35.906Z,100.00
2023-04-15T20:35:21.227Z,100.00
2023-04-15T20:38:05.759Z,100.00
2023-04-15T20:40:43.498Z,100.00
2023-04-15T20:43:26.215Z,100.00
2023-04-15T20:46:17.750Z,100.00
2023-04-15T20:49:05.192Z,100.00
2023-04-15T20:51:48.876Z,100.00
2023-04-15T20:54:29.924Z,100.00
2023-04-15T20:57:13.617Z,100.00
2023-04-15T20:59:59.528Z,100.00
2023-04-15T21:02:47.928Z,100.00
2023-04-15T21:05:29.159Z,100.00
2023-04-15T21:08:12.983Z,100.00
2023-04-15T21:10:59.171Z,100.00
2023-04-15T21:13:46.349Z,100.00
2023-04-15T21:16:32.120Z,100.00
2023-04-15T21:19:11.115Z,100.00
2023-04-15T21:21:51.847Z,100.00
2023-04-15T21:24:40.066Z,100.00
2023-04-15T21:27:29.320Z,100.00
2023-04-15T21:30:12.629Z,100.00
2023-04-15T21:32:56.250Z,100.00
2023-04-15T21:35:40.029Z,100.00
2023-04-15T21:38:22.689Z,100.00
2023-04-15T21:41:12.754Z,100.00
2023-04-15T21:43:54.055Z,100.00
2023-04-15T21:46:46.138Z,100.00
2023-04-15T21:49:21.015Z,100.00
2023-04-15T21:52:06.016Z,100.00
2023-04-15T21:54:46.154Z,100.00
2023-04-15T21:57:34.307Z,100.00
2023-04-15T22:00:20.422Z,100.00
2023-04-15T22:03:09.613Z,100.00
2023-04-15T22:05:58.630Z,100.00
2023-04-15T22:08:41.744Z,100.00
2023-04-15T22:11:33.652Z,100.00
2023-04-15T22:14:22.367Z,100.00
2023-04-15T22:17:03.233Z,100.00
2023-04-15T22:19:42.086Z,100.00
2023-04-15T22:22:19.846Z,100.00
2023-04-15T22:25:12.279Z,100.00
2023-04-15T22:27:54.043Z,100.00
2023-04-15T22:30:37.748Z,100.00
2023-04-15T22:33:18.481Z,100.00
2023-04-15T22:36:10.218Z,100.00
2023-04-15T22:38:54.745Z,100.00
2023-04-15T22:41:32.338Z,100.00
2023-04-15T22:44:15.456Z,100.00
2023-04-15T22:47:01.887Z,100.00
2023-04-15T22:49:37.022Z,100.00
2023-04-15T22:52:20.156Z,100.00
2023-04-15T22:55:02.437Z,100.00
2023-04-15T22:57:46.895Z,100.00
2023-04-15T23:00:28.435Z,100.00
2023-04-15T23:03:04.218Z,100.00
2023-04-15T23:05:41.287Z,100.00
2023-04-15T23:08:27.684Z,100.00
2023-04-15T23:11:08.516Z,100.00
2023-04-15T23:13:56.647Z,100.00
2023-04-15T23:16:43.685Z,100.00
2023-04-15T23:19:21.637Z,100.00
2023-04-15T23:22:12.261Z,100.00
2023-04-15T23:24:53.195Z,100.00
2023-04-15T23:27:39.848Z,100.00
2023-04-15T23:30:19.820Z,100.00
2023-04-15T23:33:08.565Z,100.00
2023-04-15T23:35:53.105Z,100.00
2023-04-15T23:38:33.764Z,100.00
2023-04-15T23:41:11.937Z,100.00
2023-04-15T23:43:52.784Z,100.00
2023-04-15T23:46:33.821Z,100.00
2023-04-15T23:49:14.591Z,100.00
2023-04-15T23:51:55.253Z,100.00
2023-04-15T23:54:33.830Z,100.00
2023-04-15T23:57:12.024Z,100.00
2023-04-15T23:59:58.864Z,100.00
